createdAt,value
2023-03-03T04:33:59.262Z,48.20
2023-03-03T04:45:01.099Z,50.10
2023-03-03T04:55:37.891Z,52.80
2023-03-03T05:06:15.544Z,55.40
2023-03-03T05:16:51.304Z,58.60
2023-03-03T05:27:26.971Z,60.30
2023-03-03T05:38:05.292Z,62.40
2023-03-03T05:48:41.658Z,63.70
2023-03-03T05:59:17.317Z,66.00
2023-03-03T06:09:53.110Z,64.80
2023-03-03T06:20:29.204Z,66.70
2023-03-03T06:31:05.338Z,71.40
2023-03-03T06:41:41.269Z,67.50
2023-03-03T06:52:26.125Z,62.90
2023-03-03T07:03:15.146Z,48.10
2023-03-03T07:13:52.521Z,38.30
2023-03-03T07:24:30.023Z,26.40
2023-03-03T07:35:24.348Z,25.70
2023-03-03T07:46:21.819Z,15.80
2023-03-03T07:57:05.986Z,15.30
2023-03-03T08:07:41.969Z,17.20
2023-03-03T08:18:24.080Z,21.40
2023-03-03T08:29:01.198Z,17.70
2023-03-03T08:39:36.726Z,16.80
2023-03-03T08:50:13.255Z,15.90
2023-03-03T09:00:51.245Z,17.50
2023-03-03T09:11:29.487Z,16.90
2023-03-03T09:22:23.698Z,11.30
2023-03-03T09:32:59.616Z,6.10
2023-03-03T09:43:51.239Z,8.50
2023-03-03T09:54:37.943Z,6.10
2023-03-03T10:05:47.512Z,7.70
2023-03-03T10:16:37.648Z,7.40
2023-03-03T10:27:49.287Z,5.10
2023-03-03T10:38:40.201Z,7.00
2023-03-03T10:50:02.849Z,11.80
2023-03-03T11:00:55.975Z,12.20
2023-03-03T11:11:49.163Z,11.80
2023-03-03T11:22:30.672Z,13.00
2023-03-03T11:33:22.262Z,14.60
2023-03-03T11:44:15.355Z,14.40
2023-03-03T11:55:00.358Z,14.80
2023-03-03T12:06:16.944Z,14.00
2023-03-03T12:16:58.443Z,13.80
2023-03-03T12:28:05.695Z,13.40
2023-03-03T12:38:53.981Z,15.50
2023-03-03T12:50:06.492Z,14.50
2023-03-03T13:01:05.504Z,15.20
2023-03-03T13:11:45.291Z,14.00
2023-03-03T13:22:32.089Z,14.00
2023-03-03T13:33:14.045Z,14.60
2023-03-03T13:43:57.343Z,13.30
2023-03-03T13:55:01.839Z,13.30
2023-03-03T14:05:50.638Z,12.30
2023-03-03T14:16:36.873Z,13.00
2023-03-03T14:27:25.561Z,13.70
2023-03-03T14:38:19.559Z,13.80
2023-03-03T14:48:58.074Z,13.30
2023-03-03T14:59:34.106Z,14.30
2023-03-03T15:10:11.901Z,14.10
2023-03-03T15:21:09.162Z,14.00
2023-03-03T15:31:54.609Z,14.40
2023-03-03T15:42:52.765Z,13.20
2023-03-03T15:54:14.368Z,12.60
2023-03-03T16:05:01.799Z,12.20
2023-03-03T16:15:59.929Z,13.10
2023-03-03T16:26:56.768Z,13.10
2023-03-03T16:37:40.123Z,12.70
2023-03-03T16:48:47.177Z,12.50
2023-03-03T16:59:57.348Z,12.70
2023-03-03T17:10:42.193Z,14.00
2023-03-03T17:21:55.616Z,15.40
2023-03-03T17:32:55.891Z,15.70
2023-03-03T17:43:43.275Z,16.50
2023-03-03T17:54:40.130Z,17.70
2023-03-03T18:05:37.456Z,19.30
2023-03-03T18:16:33.345Z,20.90
2023-03-03T18:27:24.507Z,23.20
2023-03-03T18:38:15.563Z,25.30
2023-03-03T18:48:53.867Z,26.40
2023-03-03T18:59:35.786Z,27.40
2023-03-03T19:10:20.399Z,27.20
2023-03-03T19:21:19.712Z,27.80
2023-03-03T19:32:28.224Z,29.30
2023-03-03T19:43:24.309Z,30.30
2023-03-03T19:54:22.334Z,31.70
2023-03-03T20:05:16.273Z,33.50
2023-03-03T20:16:01.110Z,35.20
2023-03-03T20:26:57.802Z,35.40
2023-03-03T20:37:52.217Z,37.90
2023-03-03T20:48:49.286Z,40.40
2023-03-03T20:59:31.929Z,42.60
2023-03-03T21:10:16.469Z,45.00
2023-03-03T21:20:52.250Z,46.70
2023-03-03T21:31:27.740Z,47.30
2023-03-03T21:42:09.101Z,48.70
2023-03-03T21:52:44.499Z,50.00
2023-03-03T22:03:20.788Z,50.60
2023-03-03T22:13:56.923Z,51.80
2023-03-03T22:24:32.769Z,58.20
